CPX799 Details

Departure: Miami International Airport (KMIA)
Arrival: Aeropuerto Internacional Ezeiza/Ministro Pistarini (SAEZ) at N/A
Route: EONNS2 EONNS A509 URSUS UL795 DIBOK UL795 LOGON UL793 SIMUR UL793 AKNOV UL793 SASNO UL793 ROKES UL793 XOLAT UL793 AKPEL UL793 SIS UL793 GUA UW65 PAGON PAGON6B
Notes:


Current Weather Information
KMIA 191653Z 09019G22KT 10SM BKN035CB BKN095 BKN200 32/22 A3007 RMK AO2 SLP181 CB E MOV W T03170217
SAEZ 191600Z 16004KT CAVOK 08/M01 Q1030 NOSIG